createdAt,value
2023-02-19T00:01:51.984Z,2.90
2023-02-19T00:04:23.734Z,2.33
2023-02-19T00:06:51.144Z,3.10
2023-02-19T00:09:20.124Z,2.13
2023-02-19T00:11:48.168Z,1.85
2023-02-19T00:14:18.216Z,2.97
2023-02-19T00:16:45.753Z,2.40
2023-02-19T00:19:18.110Z,1.88
2023-02-19T00:21:50.617Z,2.20
2023-02-19T00:24:20.006Z,1.85
2023-02-19T00:26:48.239Z,2.83
2023-02-19T00:29:21.041Z,2.65
2023-02-19T00:31:51.178Z,2.42
2023-02-19T00:34:25.977Z,3.08
2023-02-19T00:36:53.415Z,2.65
2023-02-19T00:39:21.457Z,3.08
2023-02-19T00:41:48.718Z,2.28
2023-02-19T00:44:18.881Z,2.30
2023-02-19T00:46:48.731Z,2.57
2023-02-19T00:49:22.391Z,2.03
2023-02-19T00:51:52.529Z,2.25
2023-02-19T00:54:22.755Z,2.15
2023-02-19T00:56:53.150Z,2.88
2023-02-19T00:59:22.484Z,2.20
2023-02-19T01:01:51.971Z,2.25
2023-02-19T01:04:19.312Z,2.60
2023-02-19T01:06:48.803Z,2.92
2023-02-19T01:09:16.196Z,1.73
2023-02-19T01:11:43.337Z,2.30
2023-02-19T01:14:11.918Z,2.38
2023-02-19T01:16:41.335Z,2.20
2023-02-19T01:19:10.880Z,2.60
2023-02-19T01:21:40.726Z,2.33
2023-02-19T01:24:07.958Z,2.20
2023-02-19T01:26:35.191Z,1.90
2023-02-19T01:29:06.404Z,1.90
2023-02-19T01:31:35.069Z,2.17
2023-02-19T01:34:04.250Z,3.50
2023-02-19T01:36:34.236Z,2.25
2023-02-19T01:39:05.040Z,1.38
2023-02-19T01:41:36.275Z,2.83
2023-02-19T01:44:12.202Z,2.63
2023-02-19T01:46:44.039Z,2.13
2023-02-19T01:49:15.273Z,1.73
2023-02-19T01:51:48.219Z,2.88
2023-02-19T01:54:20.361Z,1.90
2023-02-19T01:56:49.047Z,2.45
2023-02-19T01:59:18.282Z,1.92
2023-02-19T02:01:48.675Z,3.05
2023-02-19T02:04:17.385Z,2.17
2023-02-19T02:06:57.480Z,2.60
2023-02-19T02:09:48.206Z,2.70
2023-02-19T02:12:15.429Z,2.60
2023-02-19T02:14:47.845Z,2.17
2023-02-19T02:17:36.879Z,2.45
2023-02-19T02:20:13.335Z,2.13
2023-02-19T02:23:11.540Z,1.83
2023-02-19T02:25:53.596Z,1.85
2023-02-19T02:28:29.540Z,1.98
2023-02-19T02:31:06.480Z,1.98
2023-02-19T02:33:40.051Z,2.38
2023-02-19T02:36:13.919Z,2.50
2023-02-19T02:41:11.896Z,2.22
2023-02-19T02:43:40.269Z,1.95
2023-02-19T02:46:11.385Z,1.50
2023-02-19T02:49:01.343Z,2.70
2023-02-19T02:51:47.586Z,2.05
2023-02-19T02:55:03.866Z,2.47
2023-02-19T02:57:34.263Z,1.58
2023-02-19T03:00:04.309Z,2.03
2023-02-19T03:02:32.240Z,1.70
2023-02-19T03:05:42.750Z,2.35
2023-02-19T03:08:21.783Z,2.15
2023-02-19T03:11:21.276Z,2.58
2023-02-19T03:14:14.563Z,1.75
2023-02-19T03:17:04.718Z,1.40
2023-02-19T03:19:37.807Z,1.45
2023-02-19T03:22:14.369Z,1.63
2023-02-19T03:25:11.076Z,2.03
2023-02-19T03:27:41.619Z,2.80
2023-02-19T03:30:14.427Z,2.38
2023-02-19T03:33:13.016Z,2.08
2023-02-19T03:35:47.723Z,2.75
2023-02-19T03:38:21.577Z,1.92
2023-02-19T03:41:10.092Z,1.98
2023-02-19T03:43:50.206Z,1.75
2023-02-19T03:46:31.478Z,1.40
2023-02-19T03:49:09.092Z,2.00
2023-02-19T03:51:50.318Z,2.15
2023-02-19T03:54:23.801Z,10.68
2023-02-19T03:59:48.598Z,2.45
2023-02-19T04:02:48.054Z,1.88
2023-02-19T04:05:25.848Z,2.47
2023-02-19T04:07:59.298Z,2.75
2023-02-19T04:10:32.340Z,1.38
2023-02-19T04:13:08.701Z,2.30
2023-02-19T04:15:40.413Z,1.83
2023-02-19T04:18:11.068Z,1.98
2023-02-19T04:20:43.628Z,2.50
2023-02-19T04:23:12.334Z,1.77
2023-02-19T04:25:44.111Z,2.15
2023-02-19T04:28:14.473Z,1.77
2023-02-19T04:30:43.530Z,1.88
2023-02-19T04:33:13.070Z,2.58
2023-02-19T04:35:40.252Z,2.42
2023-02-19T04:38:07.920Z,2.55
2023-02-19T04:40:37.636Z,2.00
2023-02-19T04:43:04.923Z,3.70
2023-02-19T04:45:32.273Z,2.35
2023-02-19T04:47:59.545Z,1.58
2023-02-19T04:50:26.732Z,2.60
2023-02-19T04:52:54.220Z,4.95
2023-02-19T04:55:23.604Z,2.88
2023-02-19T04:57:50.760Z,2.92
2023-02-19T05:00:18.237Z,2.35
2023-02-19T05:02:45.393Z,2.13
2023-02-19T05:05:12.604Z,1.77
2023-02-19T05:07:42.661Z,2.00
2023-02-19T05:10:12.179Z,2.55
2023-02-19T05:12:39.367Z,1.80
2023-02-19T05:15:06.995Z,3.10
2023-02-19T05:17:34.849Z,2.58
2023-02-19T05:20:05.024Z,1.67
2023-02-19T05:22:39.168Z,2.30
2023-02-19T05:25:06.626Z,2.25
2023-02-19T05:27:33.805Z,2.17
2023-02-19T05:30:04.940Z,2.20
2023-02-19T05:32:32.107Z,2.80
2023-02-19T05:35:02.467Z,1.85
2023-02-19T05:37:32.997Z,2.22
2023-02-19T05:40:02.436Z,2.55
2023-02-19T05:42:32.300Z,1.70
2023-02-19T05:44:59.592Z,1.73
2023-02-19T05:47:27.002Z,1.90
2023-02-19T05:49:54.344Z,3.40
2023-02-19T05:52:24.117Z,2.80
2023-02-19T05:54:51.258Z,1.98
2023-02-19T05:57:20.392Z,3.67
2023-02-19T05:59:47.805Z,3.40
2023-02-19T06:02:15.109Z,5.47
2023-02-19T06:04:44.425Z,2.50
2023-02-19T06:07:14.099Z,3.55
2023-02-19T06:09:45.866Z,2.60
2023-02-19T06:12:15.488Z,3.20
2023-02-19T06:14:42.707Z,8.35
2023-02-19T06:17:09.937Z,2.00
2023-02-19T06:19:38.250Z,2.47
2023-02-19T06:22:05.645Z,2.67
2023-02-19T06:24:33.766Z,1.83
2023-02-19T06:27:00.981Z,2.33
2023-02-19T06:29:28.633Z,2.45
2023-02-19T06:31:55.951Z,2.88
2023-02-19T06:34:26.223Z,1.75
2023-02-19T06:36:54.225Z,1.27
2023-02-19T06:39:21.510Z,1.40
2023-02-19T06:41:50.994Z,1.75
2023-02-19T06:44:18.333Z,2.35
2023-02-19T06:46:45.515Z,1.38
2023-02-19T06:49:15.369Z,2.92
2023-02-19T06:51:43.749Z,2.05
2023-02-19T06:54:10.827Z,1.13
2023-02-19T06:56:41.895Z,1.40
2023-02-19T06:59:16.913Z,2.88
2023-02-19T07:01:49.728Z,2.65
2023-02-19T07:04:17.509Z,2.63
2023-02-19T07:06:45.075Z,1.75
2023-02-19T07:09:14.803Z,1.50
2023-02-19T07:11:43.244Z,2.15
2023-02-19T07:14:16.696Z,2.88
2023-02-19T07:16:47.635Z,2.50
2023-02-19T07:19:15.921Z,2.42
2023-02-19T07:21:45.798Z,2.38
2023-02-19T07:24:19.091Z,2.13
2023-02-19T07:29:13.930Z,5.03
2023-02-19T07:31:43.655Z,4.00
2023-02-19T07:34:13.076Z,3.83
2023-02-19T07:36:40.573Z,3.67
2023-02-19T07:39:10.177Z,11.40
2023-02-19T07:41:38.145Z,2.45
2023-02-19T07:44:06.934Z,3.00
2023-02-19T07:46:34.428Z,5.78
2023-02-19T07:49:01.790Z,3.88
2023-02-19T07:51:29.356Z,8.98
2023-02-19T07:53:58.436Z,5.80
2023-02-19T07:56:25.611Z,7.22
2023-02-19T07:58:55.417Z,6.32
2023-02-19T08:01:44.320Z,5.75
2023-02-19T08:04:17.470Z,6.03
2023-02-19T08:06:44.780Z,4.88
2023-02-19T08:09:12.978Z,5.57
2023-02-19T08:11:58.616Z,6.82
2023-02-19T08:14:26.922Z,4.97
2023-02-19T08:16:54.533Z,2.70
2023-02-19T08:19:22.215Z,2.83
2023-02-19T08:21:50.578Z,6.70
2023-02-19T08:24:17.746Z,2.97
2023-02-19T08:26:45.039Z,6.85
2023-02-19T08:29:12.727Z,5.25
2023-02-19T08:31:40.048Z,5.03
2023-02-19T08:34:07.459Z,9.38
2023-02-19T08:36:34.733Z,8.45
2023-02-19T08:39:04.458Z,7.18
2023-02-19T08:41:31.755Z,8.45
2023-02-19T08:43:59.078Z,9.30
2023-02-19T08:46:26.467Z,8.43
2023-02-19T08:48:53.686Z,8.98
2023-02-19T08:51:21.075Z,9.70
2023-02-19T08:53:48.474Z,10.40
2023-02-19T08:56:17.346Z,9.65
2023-02-19T08:58:44.884Z,7.53
2023-02-19T09:01:18.264Z,10.32
2023-02-19T09:03:45.833Z,7.72
2023-02-19T09:06:20.610Z,7.85
2023-02-19T09:08:48.017Z,10.48
2023-02-19T09:11:17.813Z,10.32
2023-02-19T09:13:45.291Z,7.63
2023-02-19T09:16:12.754Z,9.18
2023-02-19T09:18:42.452Z,6.03
2023-02-19T09:21:10.293Z,6.55
2023-02-19T09:23:37.848Z,10.55
2023-02-19T09:26:11.335Z,5.65
2023-02-19T09:28:41.622Z,8.65
2023-02-19T09:31:15.498Z,5.03
2023-02-19T09:33:47.757Z,3.88
2023-02-19T09:36:16.508Z,3.83
2023-02-19T09:38:48.417Z,6.20
2023-02-19T09:41:24.762Z,4.68
2023-02-19T09:43:54.185Z,4.18
2023-02-19T09:46:32.534Z,4.30
2023-02-19T09:49:08.220Z,3.72
2023-02-19T09:51:37.968Z,4.75
2023-02-19T09:54:11.992Z,4.07
2023-02-19T09:56:39.652Z,5.53
2023-02-19T09:59:16.465Z,13.25
2023-02-19T10:01:45.511Z,3.70
2023-02-19T10:04:15.317Z,3.97
2023-02-19T10:06:43.356Z,5.25
2023-02-19T10:09:22.674Z,3.53
2023-02-19T10:11:50.045Z,4.95
2023-02-19T10:14:44.790Z,6.65
2023-02-19T10:17:31.711Z,4.28
2023-02-19T10:19:59.578Z,5.70
2023-02-19T10:22:27.074Z,3.80
2023-02-19T10:24:57.775Z,3.28
2023-02-19T10:27:30.499Z,5.18
2023-02-19T10:30:02.585Z,4.65
2023-02-19T10:32:32.385Z,4.20
2023-02-19T10:35:15.521Z,3.80
2023-02-19T10:37:46.409Z,5.65
2023-02-19T10:40:18.082Z,3.25
2023-02-19T10:42:48.622Z,2.67
2023-02-19T10:45:35.062Z,3.05
2023-02-19T10:48:03.302Z,3.95
2023-02-19T10:50:46.878Z,4.75
2023-02-19T10:53:26.506Z,3.60
2023-02-19T10:56:29.718Z,3.53
2023-02-19T10:59:16.282Z,3.45
2023-02-19T11:02:04.243Z,5.30
2023-02-19T11:04:37.994Z,3.22
2023-02-19T11:07:16.959Z,4.45
2023-02-19T11:09:46.470Z,2.83
2023-02-19T11:12:23.485Z,7.63
2023-02-19T11:14:50.895Z,10.68
2023-02-19T11:17:30.215Z,5.40
2023-02-19T11:20:07.028Z,6.35
2023-02-19T11:22:38.977Z,5.68
2023-02-19T11:25:07.910Z,8.25
2023-02-19T11:27:35.215Z,4.68
2023-02-19T11:30:34.403Z,4.40
2023-02-19T11:33:24.666Z,3.65
2023-02-19T11:35:57.857Z,3.90
2023-02-19T11:38:25.896Z,5.75
2023-02-19T11:41:23.448Z,4.97
2023-02-19T11:44:30.341Z,6.18
2023-02-19T11:47:29.376Z,4.57
2023-02-19T11:50:02.615Z,10.20
2023-02-19T11:52:38.259Z,4.68
2023-02-19T11:55:35.012Z,5.97
2023-02-19T11:58:02.416Z,5.45
2023-02-19T12:00:33.529Z,5.47
2023-02-19T12:03:20.113Z,5.88
2023-02-19T12:06:09.897Z,6.03
2023-02-19T12:09:09.738Z,6.68
2023-02-19T12:11:55.869Z,5.60
2023-02-19T12:15:00.485Z,5.45
2023-02-19T12:17:39.690Z,5.80
2023-02-19T12:20:27.500Z,7.53
2023-02-19T12:23:17.605Z,7.32
2023-02-19T12:25:49.274Z,5.72
2023-02-19T12:28:43.858Z,5.00
2023-02-19T12:31:46.304Z,6.15
2023-02-19T12:34:47.242Z,7.13
2023-02-19T12:37:27.686Z,5.22
2023-02-19T12:40:17.158Z,5.63
2023-02-19T12:42:51.171Z,5.50
2023-02-19T12:45:27.033Z,4.22
2023-02-19T12:48:13.187Z,6.03
2023-02-19T12:50:41.760Z,4.25
2023-02-19T12:53:28.403Z,3.80
2023-02-19T12:55:57.692Z,4.70
2023-02-19T12:58:48.787Z,5.03
2023-02-19T13:01:22.525Z,5.38
2023-02-19T13:03:58.682Z,4.45
2023-02-19T13:06:47.657Z,5.35
2023-02-19T13:09:51.231Z,4.15
2023-02-19T13:12:25.986Z,4.13
2023-02-19T13:15:12.643Z,3.90
2023-02-19T13:17:51.372Z,5.03
2023-02-19T13:20:34.704Z,6.18
2023-02-19T13:23:23.463Z,5.60
2023-02-19T13:26:13.087Z,5.25
2023-02-19T13:29:18.646Z,5.22
2023-02-19T13:32:01.219Z,4.30
2023-02-19T13:34:49.637Z,4.57
2023-02-19T13:37:18.825Z,4.55
2023-02-19T13:39:54.044Z,4.03
2023-02-19T13:42:32.605Z,4.95
2023-02-19T13:45:03.457Z,3.33
2023-02-19T13:47:55.172Z,3.97
2023-02-19T13:50:32.943Z,4.15
2023-02-19T13:53:02.110Z,3.67
2023-02-19T13:55:52.079Z,4.78
2023-02-19T13:58:37.170Z,3.65
2023-02-19T14:01:10.067Z,9.48
2023-02-19T14:03:37.726Z,6.97
2023-02-19T14:06:08.161Z,5.05
2023-02-19T14:08:52.637Z,5.13
2023-02-19T14:11:42.971Z,5.63
2023-02-19T14:14:28.880Z,6.40
2023-02-19T14:17:04.465Z,5.25
2023-02-19T14:19:47.345Z,5.88
2023-02-19T14:22:45.242Z,3.58
2023-02-19T14:25:33.577Z,3.42
2023-02-19T14:28:09.850Z,4.35
2023-02-19T14:30:51.686Z,5.22
2023-02-19T14:33:31.695Z,11.20
2023-02-19T14:36:17.651Z,6.10
2023-02-19T14:38:58.078Z,6.15
2023-02-19T14:41:28.712Z,4.63
2023-02-19T14:44:00.586Z,5.38
2023-02-19T14:46:32.558Z,6.38
2023-02-19T14:49:07.492Z,5.55
2023-02-19T14:51:45.893Z,5.63
2023-02-19T14:54:29.251Z,8.55
2023-02-19T14:56:58.279Z,8.35
2023-02-19T14:59:28.580Z,7.05
2023-02-19T15:04:46.069Z,7.57
2023-02-19T15:07:30.108Z,4.38
2023-02-19T15:10:05.046Z,5.78
2023-02-19T15:12:55.198Z,5.88
2023-02-19T15:15:29.108Z,4.97
2023-02-19T15:18:01.318Z,6.38
2023-02-19T15:20:34.435Z,4.22
2023-02-19T15:23:04.570Z,4.43
2023-02-19T15:25:41.303Z,6.57
2023-02-19T15:28:28.617Z,5.80
2023-02-19T15:30:56.784Z,4.82
2023-02-19T15:33:27.107Z,4.82
2023-02-19T15:36:03.468Z,4.53
2023-02-19T15:38:30.843Z,4.68
2023-02-19T15:41:03.046Z,4.82
2023-02-19T15:43:53.820Z,5.22
2023-02-19T15:46:25.568Z,4.53
2023-02-19T15:49:19.039Z,5.00
2023-02-19T15:51:56.754Z,4.20
2023-02-19T15:54:58.711Z,4.55
2023-02-19T15:57:35.268Z,5.10
2023-02-19T16:00:15.620Z,3.75
2023-02-19T16:02:43.603Z,4.97
2023-02-19T16:05:17.972Z,3.55
2023-02-19T16:07:45.457Z,10.52
2023-02-19T16:10:24.614Z,6.00
2023-02-19T16:12:56.750Z,8.50
2023-02-19T16:15:24.968Z,4.82
2023-02-19T16:17:54.032Z,5.50
2023-02-19T16:20:29.085Z,10.13
2023-02-19T16:23:05.492Z,4.70
2023-02-19T16:25:44.247Z,4.90
2023-02-19T16:28:24.023Z,3.58
2023-02-19T16:31:05.255Z,5.40
2023-02-19T16:33:46.523Z,5.03
2023-02-19T16:36:30.225Z,6.10
2023-02-19T16:39:00.751Z,4.32
2023-02-19T16:41:30.715Z,4.00
2023-02-19T16:44:06.528Z,4.15
2023-02-19T16:46:34.049Z,5.35
2023-02-19T16:49:01.674Z,3.05
2023-02-19T16:51:31.766Z,4.18
2023-02-19T16:54:01.306Z,3.38
2023-02-19T16:56:28.906Z,3.85
2023-02-19T16:58:56.159Z,5.60
2023-02-19T17:01:24.595Z,2.92
2023-02-19T17:03:58.935Z,4.28
2023-02-19T17:06:32.728Z,2.63
2023-02-19T17:09:01.529Z,3.78
2023-02-19T17:11:33.207Z,5.05
2023-02-19T17:14:03.101Z,14.52
2023-02-19T17:16:40.095Z,7.65
2023-02-19T17:19:18.298Z,9.90
2023-02-19T17:21:46.701Z,8.15
2023-02-19T17:24:14.407Z,6.40
2023-02-19T17:26:42.902Z,3.95
2023-02-19T17:29:15.219Z,5.40
2023-02-19T17:31:45.054Z,4.10
2023-02-19T17:34:12.521Z,8.60
2023-02-19T17:36:40.873Z,4.55
2023-02-19T17:39:15.132Z,4.10
2023-02-19T17:41:42.776Z,8.65
2023-02-19T17:44:10.354Z,5.05
2023-02-19T17:46:38.277Z,5.72
2023-02-19T17:49:07.271Z,5.22
2023-02-19T17:51:35.002Z,5.80
2023-02-19T17:54:02.163Z,5.15
2023-02-19T17:56:29.822Z,4.70
2023-02-19T17:58:58.188Z,4.45
2023-02-19T18:01:25.543Z,4.03
2023-02-19T18:03:55.310Z,4.80
2023-02-19T18:06:22.774Z,4.85
2023-02-19T18:08:52.777Z,4.07
2023-02-19T18:11:23.912Z,3.72
2023-02-19T18:13:52.163Z,4.50
2023-02-19T18:16:19.560Z,4.28
2023-02-19T18:18:46.969Z,4.20
2023-02-19T18:21:16.604Z,4.57
2023-02-19T18:23:45.997Z,5.75
2023-02-19T18:26:18.314Z,3.30
2023-02-19T18:28:45.435Z,4.63
2023-02-19T18:31:15.631Z,4.20
2023-02-19T18:33:43.286Z,5.18
2023-02-19T18:36:11.821Z,4.60
2023-02-19T18:38:42.141Z,4.93
2023-02-19T18:41:13.646Z,4.13
2023-02-19T18:43:41.942Z,4.05
2023-02-19T18:46:10.069Z,5.70
2023-02-19T18:48:38.345Z,6.93
2023-02-19T18:51:11.729Z,4.03
2023-02-19T18:53:42.885Z,4.93
2023-02-19T18:56:10.324Z,2.75
2023-02-19T18:58:37.444Z,4.10
2023-02-19T19:01:04.988Z,3.25
2023-02-19T19:03:32.828Z,3.78
2023-02-19T19:06:04.674Z,3.85
2023-02-19T19:08:32.400Z,3.22
2023-02-19T19:10:59.809Z,5.18
2023-02-19T19:13:27.480Z,3.70
2023-02-19T19:15:56.724Z,5.13
2023-02-19T19:18:25.053Z,3.78
2023-02-19T19:20:56.266Z,3.20
2023-02-19T19:23:23.640Z,3.55
2023-02-19T19:25:51.219Z,3.55
2023-02-19T19:28:18.410Z,4.07
2023-02-19T19:30:49.138Z,6.40
2023-02-19T19:33:17.690Z,5.28
2023-02-19T19:35:45.333Z,5.13
2023-02-19T19:38:14.964Z,3.10
2023-02-19T19:40:44.366Z,3.40
2023-02-19T19:43:12.620Z,3.10
2023-02-19T19:45:40.034Z,5.35
2023-02-19T19:48:07.369Z,2.60
2023-02-19T19:50:39.810Z,2.67
2023-02-19T19:53:06.955Z,5.75
2023-02-19T19:55:39.089Z,3.53
2023-02-19T19:58:08.774Z,3.10
2023-02-19T20:00:42.886Z,3.60
2023-02-19T20:03:10.203Z,3.80
2023-02-19T20:05:37.598Z,3.08
2023-02-19T20:08:08.830Z,3.10
2023-02-19T20:10:40.993Z,3.03
2023-02-19T20:13:08.289Z,4.32
2023-02-19T20:15:37.187Z,3.42
2023-02-19T20:18:04.565Z,3.47
2023-02-19T20:20:35.174Z,3.25
2023-02-19T20:23:04.623Z,5.68
2023-02-19T20:25:32.040Z,3.35
2023-02-19T20:27:59.550Z,3.20
2023-02-19T20:30:26.790Z,4.68
2023-02-19T20:32:54.089Z,2.67
2023-02-19T20:35:28.610Z,4.50
2023-02-19T20:37:56.218Z,4.43
2023-02-19T20:40:27.379Z,3.20
2023-02-19T20:42:57.407Z,3.50
2023-02-19T20:45:24.627Z,3.88
2023-02-19T20:47:52.022Z,3.22
2023-02-19T20:50:19.590Z,5.88
2023-02-19T20:52:46.909Z,5.47
2023-02-19T20:55:16.645Z,3.78
2023-02-19T20:57:46.541Z,3.03
2023-02-19T21:00:15.591Z,3.30
2023-02-19T21:02:45.363Z,2.42
2023-02-19T21:05:13.458Z,3.25
2023-02-19T21:07:41.636Z,3.50
2023-02-19T21:10:09.512Z,4.30
2023-02-19T21:12:37.038Z,3.55
2023-02-19T21:15:05.478Z,3.25
2023-02-19T21:17:37.457Z,2.63
2023-02-19T21:20:09.374Z,2.42
2023-02-19T21:22:39.051Z,3.72
2023-02-19T21:25:10.332Z,3.72
2023-02-19T21:27:38.407Z,2.42
2023-02-19T21:30:09.638Z,2.40
2023-02-19T21:32:36.852Z,3.88
2023-02-19T21:35:05.859Z,3.30
2023-02-19T21:37:35.431Z,6.03
2023-02-19T21:40:02.752Z,4.38
2023-02-19T21:42:30.164Z,2.83
2023-02-19T21:44:59.644Z,2.72
2023-02-19T21:47:31.325Z,2.75
2023-02-19T21:49:58.553Z,3.08
2023-02-19T21:52:26.943Z,2.03
2023-02-19T21:54:55.262Z,2.60
2023-02-19T21:57:22.985Z,2.45
2023-02-19T21:59:50.365Z,4.00
2023-02-19T22:02:19.933Z,3.42
2023-02-19T22:04:53.452Z,3.03
2023-02-19T22:07:25.799Z,2.40
2023-02-19T22:09:54.433Z,2.63
2023-02-19T22:12:23.000Z,3.53
2023-02-19T22:14:50.117Z,3.05
2023-02-19T22:17:17.544Z,2.40
2023-02-19T22:19:48.961Z,3.13
2023-02-19T22:22:18.750Z,3.75
2023-02-19T22:24:45.889Z,3.85
2023-02-19T22:27:18.124Z,3.03
2023-02-19T22:29:50.148Z,3.95
2023-02-19T22:32:17.614Z,2.00
2023-02-19T22:34:47.314Z,2.63
2023-02-19T22:37:14.475Z,2.75
2023-02-19T22:39:44.463Z,2.58
2023-02-19T22:42:11.647Z,3.10
2023-02-19T22:44:39.004Z,3.45
2023-02-19T22:47:06.458Z,2.40
2023-02-19T22:49:35.861Z,3.10
2023-02-19T22:52:07.409Z,2.92
2023-02-19T22:54:35.542Z,2.40
2023-02-19T22:57:06.707Z,2.28
2023-02-19T22:59:34.291Z,4.20
2023-02-19T23:02:01.670Z,3.03
2023-02-19T23:04:31.333Z,4.70
2023-02-19T23:06:58.539Z,3.55
2023-02-19T23:09:29.414Z,2.75
2023-02-19T23:12:10.285Z,3.17
2023-02-19T23:14:42.144Z,3.22
2023-02-19T23:17:09.613Z,1.90
2023-02-19T23:19:37.944Z,3.25
2023-02-19T23:22:07.749Z,3.35
2023-02-19T23:24:35.060Z,2.05
2023-02-19T23:27:09.362Z,4.35
2023-02-19T23:29:36.532Z,2.70
2023-02-19T23:32:04.151Z,2.63
2023-02-19T23:34:33.562Z,2.22
2023-02-19T23:37:03.108Z,1.85
2023-02-19T23:39:30.552Z,2.50
2023-02-19T23:41:58.559Z,2.28
2023-02-19T23:44:28.246Z,2.53
2023-02-19T23:46:55.714Z,2.22
2023-02-19T23:49:25.107Z,2.53
2023-02-19T23:51:57.956Z,2.60
2023-02-19T23:56:57.887Z,2.05
2023-02-19T23:59:28.535Z,2.58
